createdAt,value
2022-12-23T00:00:46.207Z,22.67
2022-12-23T00:03:13.931Z,21.20
2022-12-23T00:05:41.685Z,18.77
2022-12-23T00:08:09.283Z,18.07
2022-12-23T00:10:40.990Z,15.73
2022-12-23T00:13:28.348Z,14.80
2022-12-23T00:16:06.689Z,17.67
2022-12-23T00:18:35.097Z,20.43
2022-12-23T00:21:08.958Z,24.57
2022-12-23T00:23:40.081Z,21.47
2022-12-23T00:26:12.788Z,21.73
2022-12-23T00:28:40.330Z,22.77
2022-12-23T00:31:09.537Z,24.30
2022-12-23T00:33:40.219Z,23.63
2022-12-23T00:36:25.222Z,21.97
2022-12-23T00:39:11.775Z,24.17
2022-12-23T00:41:57.895Z,26.37
2022-12-23T00:44:29.112Z,26.07
2022-12-23T00:47:04.305Z,25.67
2022-12-23T00:49:43.816Z,29.67
2022-12-23T00:52:17.438Z,26.33
2022-12-23T00:54:45.073Z,21.43
2022-12-23T00:57:18.495Z,25.90
2022-12-23T00:59:46.124Z,26.40
2022-12-23T01:02:33.242Z,27.20
2022-12-23T01:05:21.084Z,20.47
2022-12-23T01:07:50.845Z,26.30
2022-12-23T01:13:00.208Z,20.93
2022-12-23T01:15:38.589Z,24.73
2022-12-23T01:18:15.091Z,21.30
2022-12-23T01:20:42.666Z,27.73
2022-12-23T01:23:10.268Z,19.87
2022-12-23T01:25:37.843Z,24.50
2022-12-23T01:28:08.476Z,18.00
2022-12-23T01:30:38.513Z,18.73
2022-12-23T01:33:16.281Z,18.43
2022-12-23T01:35:45.354Z,23.33
2022-12-23T01:38:26.204Z,20.43
2022-12-23T01:40:56.899Z,24.53
2022-12-23T01:43:45.736Z,23.30
2022-12-23T01:46:13.504Z,25.73
2022-12-23T01:48:51.328Z,23.33
2022-12-23T01:51:29.630Z,21.00
2022-12-23T01:54:01.141Z,19.23
2022-12-23T01:56:36.193Z,15.80
2022-12-23T01:59:32.471Z,11.97
2022-12-23T02:02:36.186Z,9.57
2022-12-23T02:05:04.030Z,7.37
2022-12-23T02:07:50.954Z,7.53
2022-12-23T02:10:19.551Z,11.70
2022-12-23T02:12:53.251Z,20.07
2022-12-23T02:15:46.918Z,20.77
2022-12-23T02:18:17.381Z,19.97
2022-12-23T02:21:12.170Z,21.93
2022-12-23T02:24:02.837Z,17.23
2022-12-23T02:26:49.309Z,19.40
2022-12-23T02:29:53.737Z,21.10
2022-12-23T02:32:39.826Z,22.07
2022-12-23T02:35:17.357Z,37.27
2022-12-23T02:37:55.451Z,34.83
2022-12-23T02:40:42.419Z,12.13
2022-12-23T02:43:21.052Z,4.47
2022-12-23T02:45:54.339Z,6.43
2022-12-23T02:48:31.637Z,9.77
2022-12-23T02:51:01.539Z,5.07
2022-12-23T02:53:37.381Z,2.67
2022-12-23T02:56:09.298Z,3.90
2022-12-23T02:58:46.108Z,10.40
2022-12-23T03:01:16.061Z,12.10
2022-12-23T03:03:45.769Z,10.60
2022-12-23T03:06:46.053Z,10.63
2022-12-23T03:09:59.392Z,7.80
2022-12-23T03:12:39.732Z,12.40
2022-12-23T03:15:28.814Z,11.50
2022-12-23T03:18:14.968Z,14.27
2022-12-23T03:21:03.622Z,8.40
2022-12-23T03:23:37.823Z,11.33
2022-12-23T03:26:19.232Z,14.90
2022-12-23T03:28:58.959Z,8.50
2022-12-23T03:31:30.880Z,13.33
2022-12-23T03:34:03.725Z,9.50
2022-12-23T03:36:48.607Z,6.03
2022-12-23T03:39:29.777Z,6.80
2022-12-23T03:42:10.560Z,4.30
2022-12-23T03:45:03.590Z,6.17
2022-12-23T03:47:35.816Z,6.07
2022-12-23T03:50:08.549Z,7.17
2022-12-23T03:52:43.721Z,11.13
2022-12-23T03:55:18.948Z,11.13
2022-12-23T03:58:11.148Z,12.03
2022-12-23T04:00:48.442Z,8.53
2022-12-23T04:03:27.107Z,8.07
2022-12-23T04:05:59.076Z,8.23
2022-12-23T04:08:33.310Z,9.60
2022-12-23T04:11:05.103Z,8.73
2022-12-23T04:13:33.997Z,9.93
2022-12-23T04:16:02.464Z,9.20
2022-12-23T04:18:30.422Z,18.93
2022-12-23T04:20:58.184Z,11.47
2022-12-23T04:23:25.805Z,6.53
2022-12-23T04:25:53.349Z,8.93
2022-12-23T04:28:20.922Z,8.83
2022-12-23T04:30:51.108Z,8.83
2022-12-23T04:33:18.782Z,9.03
2022-12-23T04:35:46.342Z,7.27
2022-12-23T04:38:16.319Z,8.57
2022-12-23T04:40:47.170Z,9.20
2022-12-23T04:43:15.091Z,9.07
2022-12-23T04:45:42.732Z,9.70
2022-12-23T04:48:10.389Z,13.20
2022-12-23T04:50:39.072Z,10.63
2022-12-23T04:53:06.657Z,9.13
2022-12-23T04:55:34.216Z,9.43
2022-12-23T04:58:01.820Z,8.07
2022-12-23T05:00:33.977Z,9.07
2022-12-23T05:03:05.022Z,10.03
2022-12-23T05:05:32.741Z,10.17
2022-12-23T05:08:04.969Z,11.93
2022-12-23T05:10:35.901Z,12.17
2022-12-23T05:13:03.452Z,8.47
2022-12-23T05:15:32.985Z,8.17
2022-12-23T05:18:00.583Z,9.27
2022-12-23T05:20:28.227Z,8.87
2022-12-23T05:22:55.812Z,13.80
2022-12-23T05:25:23.393Z,8.17
2022-12-23T05:27:51.019Z,6.30
2022-12-23T05:30:18.690Z,9.77
2022-12-23T05:32:46.307Z,7.83
2022-12-23T05:35:13.928Z,7.90
2022-12-23T05:37:43.585Z,9.13
2022-12-23T05:40:11.491Z,8.90
2022-12-23T05:42:39.147Z,10.53
2022-12-23T05:45:07.604Z,8.00
2022-12-23T05:47:35.210Z,5.23
2022-12-23T05:50:06.256Z,7.37
2022-12-23T05:52:33.886Z,10.57
2022-12-23T05:55:01.600Z,10.33
2022-12-23T05:57:29.282Z,13.93
2022-12-23T05:59:56.842Z,15.93
2022-12-23T06:02:24.916Z,14.10
2022-12-23T06:04:55.287Z,10.70
2022-12-23T06:07:26.224Z,9.77
2022-12-23T06:09:54.673Z,11.60
2022-12-23T06:12:22.217Z,12.60
2022-12-23T06:14:49.836Z,12.63
2022-12-23T06:17:19.394Z,11.50
2022-12-23T06:19:47.494Z,9.07
2022-12-23T06:22:16.407Z,9.50
2022-12-23T06:24:47.056Z,6.87
2022-12-23T06:27:14.671Z,12.00
2022-12-23T06:29:48.652Z,19.83
2022-12-23T06:32:16.277Z,6.30
2022-12-23T06:34:43.950Z,13.87
2022-12-23T06:37:11.661Z,15.13
2022-12-23T06:39:39.211Z,48.23
2022-12-23T06:42:06.898Z,25.90
2022-12-23T06:44:34.454Z,12.60
2022-12-23T06:47:02.051Z,9.47
2022-12-23T06:49:29.684Z,6.23
2022-12-23T06:51:57.239Z,5.13
2022-12-23T06:54:24.863Z,7.27
2022-12-23T06:56:52.429Z,4.83
2022-12-23T06:59:20.054Z,5.40
2022-12-23T07:01:47.799Z,10.53
2022-12-23T07:04:15.513Z,2.83
2022-12-23T07:06:43.049Z,2.70
2022-12-23T07:09:11.452Z,1.93
2022-12-23T07:11:39.010Z,3.90
2022-12-23T07:14:06.610Z,1.93
2022-12-23T07:16:34.240Z,1.97
2022-12-23T07:19:01.983Z,1.30
2022-12-23T07:21:30.243Z,1.13
2022-12-23T07:23:58.174Z,3.53
2022-12-23T07:26:25.933Z,5.53
2022-12-23T07:28:53.590Z,3.43
2022-12-23T07:31:21.330Z,4.60
2022-12-23T07:33:48.965Z,5.27
2022-12-23T07:36:16.520Z,9.50
2022-12-23T07:38:44.213Z,8.17
2022-12-23T07:41:11.841Z,6.00
2022-12-23T07:43:39.517Z,8.27
2022-12-23T07:46:09.208Z,6.97
2022-12-23T07:48:36.840Z,5.87
2022-12-23T07:51:04.989Z,7.17
2022-12-23T07:53:32.630Z,9.27
2022-12-23T07:56:00.256Z,6.17
2022-12-23T07:58:27.945Z,4.30
2022-12-23T08:01:08.046Z,3.43
2022-12-23T08:03:36.721Z,3.50
2022-12-23T08:06:07.117Z,1.27
2022-12-23T08:08:35.469Z,2.73
2022-12-23T08:11:06.050Z,6.03
2022-12-23T08:13:36.184Z,7.20
2022-12-23T08:16:05.448Z,8.03
2022-12-23T08:18:35.950Z,6.33
2022-12-23T08:21:15.128Z,5.67
2022-12-23T08:23:43.546Z,5.17
2022-12-23T08:26:14.139Z,6.07
2022-12-23T08:28:43.323Z,5.73
2022-12-23T08:31:16.079Z,3.13
2022-12-23T08:33:46.066Z,2.30
2022-12-23T08:36:22.387Z,2.43
2022-12-23T08:38:53.666Z,4.50
2022-12-23T08:41:27.564Z,12.00
2022-12-23T08:43:57.772Z,17.57
2022-12-23T08:46:28.672Z,16.63
2022-12-23T08:48:57.995Z,10.73
2022-12-23T08:51:33.275Z,15.17
2022-12-23T08:54:01.817Z,13.80
2022-12-23T08:56:39.231Z,12.83
2022-12-23T08:59:18.730Z,12.23
2022-12-23T09:01:54.388Z,12.00
2022-12-23T09:04:22.306Z,10.00
2022-12-23T09:06:50.015Z,12.13
2022-12-23T09:09:20.909Z,9.40
2022-12-23T09:11:50.773Z,6.50
2022-12-23T09:14:18.495Z,7.13
2022-12-23T09:16:48.422Z,5.50
2022-12-23T09:19:22.118Z,4.53
2022-12-23T09:21:51.263Z,8.10
2022-12-23T09:24:21.833Z,6.30
2022-12-23T09:26:49.565Z,6.43
2022-12-23T09:29:17.189Z,7.67
2022-12-23T09:31:44.853Z,8.67
2022-12-23T09:34:13.869Z,9.03
2022-12-23T09:36:41.531Z,7.97
2022-12-23T09:39:12.538Z,6.77
2022-12-23T09:42:01.232Z,7.37
2022-12-23T09:44:38.517Z,5.33
2022-12-23T09:47:12.801Z,5.70
2022-12-23T09:49:50.551Z,7.13
2022-12-23T09:53:04.859Z,8.83
2022-12-23T09:55:58.488Z,8.13
2022-12-23T09:58:33.167Z,10.60
2022-12-23T10:01:09.202Z,14.00
2022-12-23T10:04:11.545Z,11.00
2022-12-23T10:06:57.795Z,23.03
2022-12-23T10:09:33.832Z,19.63
2022-12-23T10:12:08.868Z,25.17
2022-12-23T10:14:43.749Z,28.90
2022-12-23T10:17:16.337Z,43.77
2022-12-23T10:19:52.647Z,19.43
2022-12-23T10:22:46.030Z,9.33
2022-12-23T10:25:52.966Z,10.70
2022-12-23T10:28:34.725Z,10.77
2022-12-23T10:31:31.065Z,9.17
2022-12-23T10:34:20.292Z,10.20
2022-12-23T10:37:04.893Z,11.33
2022-12-23T10:39:44.705Z,8.03
2022-12-23T10:42:38.282Z,8.83
2022-12-23T10:45:23.416Z,7.97
2022-12-23T10:48:14.147Z,10.47
2022-12-23T10:51:19.317Z,10.30
2022-12-23T10:53:55.401Z,10.83
2022-12-23T10:56:35.551Z,9.20
2022-12-23T10:59:03.415Z,11.80
2022-12-23T11:01:38.910Z,13.13
2022-12-23T11:04:17.857Z,7.33
2022-12-23T11:07:10.808Z,9.07
2022-12-23T11:12:13.507Z,10.50
2022-12-23T11:15:01.677Z,11.93
2022-12-23T11:17:33.331Z,9.93
2022-12-23T11:20:17.925Z,9.50
2022-12-23T11:26:31.543Z,10.53
2022-12-23T11:37:07.234Z,12.07
2022-12-23T11:53:51.061Z,13.77
2022-12-23T11:56:38.642Z,15.97
2022-12-23T11:59:25.458Z,15.20
2022-12-23T12:01:55.139Z,11.73
2022-12-23T12:04:43.602Z,12.47
2022-12-23T12:07:14.917Z,14.17
2022-12-23T12:09:45.698Z,13.40
2022-12-23T12:12:21.787Z,11.83
2022-12-23T12:14:55.203Z,14.30
2022-12-23T12:17:46.714Z,12.07
2022-12-23T12:20:36.077Z,11.17
2022-12-23T12:23:18.584Z,10.70
2022-12-23T12:26:00.973Z,9.77
2022-12-23T12:28:36.997Z,8.90
2022-12-23T12:31:17.030Z,10.50
2022-12-23T12:33:56.792Z,8.50
2022-12-23T12:36:56.481Z,9.13
2022-12-23T12:39:49.246Z,9.40
2022-12-23T12:42:38.067Z,12.60
2022-12-23T12:45:21.581Z,8.63
2022-12-23T12:48:23.105Z,9.03
2022-12-23T12:51:13.003Z,10.63
2022-12-23T12:54:05.718Z,7.23
2022-12-23T12:56:51.025Z,8.07
2022-12-23T12:59:22.072Z,8.13
2022-12-23T13:02:30.501Z,7.00
2022-12-23T13:05:11.589Z,8.20
2022-12-23T13:08:02.875Z,7.90
2022-12-23T13:10:51.398Z,10.30
2022-12-23T13:13:18.932Z,9.63
2022-12-23T13:16:14.033Z,11.63
2022-12-23T13:18:55.004Z,16.03
2022-12-23T13:21:41.074Z,8.87
2022-12-23T13:24:37.693Z,7.90
2022-12-23T13:27:17.963Z,6.83
2022-12-23T13:30:06.845Z,8.50
2022-12-23T13:32:46.129Z,7.40
2022-12-23T13:35:35.829Z,7.27
2022-12-23T13:38:33.423Z,7.10
2022-12-23T13:41:25.256Z,7.63
2022-12-23T13:44:08.620Z,6.80
2022-12-23T13:47:13.432Z,7.10
2022-12-23T13:49:56.291Z,9.13
2022-12-23T13:52:54.740Z,8.73
2022-12-23T13:55:41.254Z,8.27
2022-12-23T13:58:23.449Z,8.67
2022-12-23T14:01:17.766Z,13.33
2022-12-23T14:03:48.441Z,10.97
2022-12-23T14:06:24.897Z,11.93
2022-12-23T14:08:55.041Z,8.83
2022-12-23T14:11:33.018Z,8.90
2022-12-23T14:14:06.025Z,9.63
2022-12-23T14:16:53.611Z,12.33
2022-12-23T14:19:46.257Z,14.73
2022-12-23T14:22:31.664Z,13.03
2022-12-23T14:25:05.180Z,13.73
2022-12-23T14:27:59.025Z,15.47
2022-12-23T14:30:38.684Z,12.37
2022-12-23T14:33:24.219Z,29.97
2022-12-23T14:36:22.545Z,30.57
2022-12-23T14:39:11.827Z,28.53
2022-12-23T14:41:53.830Z,32.83
2022-12-23T14:44:43.676Z,25.87
2022-12-23T14:47:31.990Z,25.93
2022-12-23T14:50:38.455Z,21.30
2022-12-23T14:53:28.231Z,15.47
2022-12-23T14:56:28.655Z,16.83
2022-12-23T14:59:33.242Z,20.60
2022-12-23T15:02:08.654Z,15.20
2022-12-23T15:04:53.397Z,12.87
2022-12-23T15:07:41.435Z,19.00
2022-12-23T15:10:17.815Z,14.70
2022-12-23T15:12:55.443Z,17.37
2022-12-23T15:15:25.573Z,11.63
2022-12-23T15:18:11.883Z,11.83
2022-12-23T15:20:39.681Z,11.90
2022-12-23T15:23:14.020Z,13.53
2022-12-23T15:25:45.554Z,12.00
2022-12-23T15:28:22.471Z,15.57
2022-12-23T15:30:53.697Z,10.67
2022-12-23T15:36:12.084Z,19.97
2022-12-23T15:38:39.870Z,8.87
2022-12-23T15:41:15.688Z,10.97
2022-12-23T15:43:44.237Z,12.07
2022-12-23T15:46:18.902Z,10.70
2022-12-23T15:48:49.154Z,7.40
2022-12-23T15:51:57.774Z,8.93
2022-12-23T15:54:21.662Z,8.53
2022-12-23T15:56:52.177Z,9.27
2022-12-23T15:59:27.535Z,9.60
2022-12-23T16:01:55.708Z,10.17
2022-12-23T16:04:29.222Z,8.40
2022-12-23T16:06:57.157Z,9.40
2022-12-23T16:09:36.059Z,11.97
2022-12-23T16:12:25.082Z,9.47
2022-12-23T16:15:00.449Z,15.13
2022-12-23T16:17:36.229Z,12.53
2022-12-23T16:20:16.123Z,13.33
2022-12-23T16:22:44.902Z,9.57
2022-12-23T16:25:15.335Z,9.93
2022-12-23T16:27:58.376Z,10.83
2022-12-23T16:30:31.433Z,8.07
2022-12-23T16:33:04.995Z,7.50
2022-12-23T16:35:42.286Z,7.80
2022-12-23T16:38:13.149Z,5.67
2022-12-23T16:40:41.735Z,2.40
2022-12-23T16:43:09.686Z,3.70
2022-12-23T16:45:38.141Z,3.03
2022-12-23T16:48:11.650Z,0.63
2022-12-23T16:50:39.338Z,0.97
2022-12-23T16:53:06.962Z,3.23
2022-12-23T16:55:34.551Z,0.60
2022-12-23T16:58:02.115Z,1.13
2022-12-23T17:00:29.736Z,1.97
2022-12-23T17:02:57.527Z,1.10
2022-12-23T17:05:25.222Z,3.23
2022-12-23T17:07:53.042Z,0.80
2022-12-23T17:10:20.645Z,0.97
2022-12-23T17:12:49.954Z,1.13
2022-12-23T17:15:21.081Z,0.80
2022-12-23T17:17:50.012Z,1.47
2022-12-23T17:20:19.742Z,1.00
2022-12-23T17:22:53.637Z,1.23
2022-12-23T17:25:26.247Z,1.70
2022-12-23T17:27:55.607Z,2.63
2022-12-23T17:30:25.025Z,2.37
2022-12-23T17:32:56.853Z,0.97
2022-12-23T17:35:26.093Z,1.53
2022-12-23T17:37:53.694Z,1.73
2022-12-23T17:40:27.951Z,2.63
2022-12-23T17:43:18.633Z,2.76
2022-12-23T17:45:56.576Z,2.50
2022-12-23T17:48:29.616Z,1.40
2022-12-23T17:50:59.166Z,1.63
2022-12-23T17:53:26.754Z,1.47
2022-12-23T17:55:54.328Z,2.30
2022-12-23T17:58:22.049Z,3.90
2022-12-23T18:00:49.691Z,3.30
2022-12-23T18:03:23.920Z,1.93
2022-12-23T18:06:00.885Z,3.90
2022-12-23T18:08:30.633Z,4.93
2022-12-23T18:10:59.502Z,4.20
2022-12-23T18:13:27.200Z,3.70
2022-12-23T18:15:54.850Z,5.53
2022-12-23T18:18:36.813Z,4.13
2022-12-23T18:21:12.163Z,3.97
2022-12-23T18:23:39.873Z,3.93
2022-12-23T18:26:10.844Z,4.90
2022-12-23T18:28:38.758Z,6.90
2022-12-23T18:31:06.696Z,2.77
2022-12-23T18:33:34.451Z,6.87
2022-12-23T18:36:02.157Z,5.40
2022-12-23T18:38:29.926Z,7.53
2022-12-23T18:40:58.122Z,9.17
2022-12-23T18:43:26.596Z,10.00
2022-12-23T18:45:54.539Z,7.10
2022-12-23T18:48:23.325Z,6.70
2022-12-23T18:50:50.997Z,7.97
2022-12-23T18:53:25.437Z,6.87
2022-12-23T18:55:54.376Z,6.77
2022-12-23T18:58:22.583Z,7.23
2022-12-23T19:00:53.239Z,7.87
2022-12-23T19:03:30.125Z,6.93
2022-12-23T19:06:06.381Z,5.73
2022-12-23T19:08:35.566Z,5.80
2022-12-23T19:11:27.343Z,5.23
2022-12-23T19:13:54.940Z,8.93
2022-12-23T19:16:22.749Z,6.60
2022-12-23T19:18:51.043Z,6.97
2022-12-23T19:21:21.660Z,7.20
2022-12-23T19:23:49.460Z,8.77
2022-12-23T19:26:17.163Z,6.23
2022-12-23T19:28:44.871Z,6.63
2022-12-23T19:31:15.169Z,5.40
2022-12-23T19:33:45.180Z,7.07
2022-12-23T19:36:19.759Z,7.67
2022-12-23T19:38:47.564Z,6.23
2022-12-23T19:41:15.588Z,6.63
2022-12-23T19:43:45.053Z,6.43
2022-12-23T19:46:13.839Z,7.63
2022-12-23T19:48:41.780Z,5.80
2022-12-23T19:51:13.952Z,6.23
2022-12-23T19:53:42.398Z,6.57
2022-12-23T19:56:16.017Z,5.70
2022-12-23T19:58:44.286Z,6.83
2022-12-23T20:01:16.013Z,9.33
2022-12-23T20:03:45.175Z,8.67
2022-12-23T20:06:19.599Z,5.67
2022-12-23T20:08:48.634Z,9.63
2022-12-23T20:11:19.396Z,9.37
2022-12-23T20:13:50.801Z,7.70
2022-12-23T20:16:18.771Z,8.67
2022-12-23T20:18:46.593Z,7.33
2022-12-23T20:21:14.535Z,11.00
2022-12-23T20:23:42.199Z,9.10
2022-12-23T20:26:12.811Z,11.50
2022-12-23T20:28:40.914Z,12.30
2022-12-23T20:31:15.379Z,9.63
2022-12-23T20:33:43.597Z,7.20
2022-12-23T20:36:13.502Z,8.03
2022-12-23T20:38:43.355Z,7.77
2022-12-23T20:41:15.609Z,12.53
2022-12-23T20:43:46.021Z,11.17
2022-12-23T20:46:21.979Z,10.40
2022-12-23T20:48:50.264Z,8.80
2022-12-23T20:51:20.542Z,12.93
2022-12-23T20:53:48.230Z,10.37
2022-12-23T20:56:17.935Z,9.17
2022-12-23T20:59:04.040Z,10.57
2022-12-23T21:01:38.334Z,12.13
2022-12-23T21:04:15.815Z,10.77
2022-12-23T21:06:44.581Z,7.57
2022-12-23T21:09:14.756Z,9.70
2022-12-23T21:11:44.715Z,10.93
2022-12-23T21:14:13.656Z,8.80
2022-12-23T21:16:41.741Z,10.03
2022-12-23T21:19:18.129Z,9.93
2022-12-23T21:21:46.464Z,7.63
2022-12-23T21:24:14.483Z,8.20
2022-12-23T21:26:42.646Z,11.23
2022-12-23T21:29:11.223Z,10.17
2022-12-23T21:31:41.239Z,6.83
2022-12-23T21:34:14.216Z,6.63
2022-12-23T21:36:44.887Z,8.80
2022-12-23T21:39:16.267Z,7.83
2022-12-23T21:41:51.786Z,8.60
2022-12-23T21:44:30.211Z,14.07
2022-12-23T21:47:03.651Z,15.40
2022-12-23T21:49:35.523Z,8.20
2022-12-23T21:52:08.916Z,9.27
2022-12-23T21:54:54.144Z,6.53
2022-12-23T21:57:24.324Z,11.83
2022-12-23T21:59:59.455Z,7.43
2022-12-23T22:02:48.071Z,10.80
2022-12-23T22:05:16.078Z,11.50
2022-12-23T22:07:43.786Z,7.47
2022-12-23T22:10:17.815Z,9.83
2022-12-23T22:12:51.955Z,9.83
2022-12-23T22:15:27.388Z,11.30
2022-12-23T22:17:54.998Z,12.13
2022-12-23T22:20:22.983Z,10.50
2022-12-23T22:22:50.623Z,11.47
2022-12-23T22:25:18.184Z,11.07
2022-12-23T22:27:45.849Z,9.07
2022-12-23T22:30:13.753Z,5.87
2022-12-23T22:32:42.655Z,10.83
2022-12-23T22:35:10.995Z,10.80
2022-12-23T22:37:39.039Z,10.20
2022-12-23T22:40:07.647Z,10.63
2022-12-23T22:42:35.303Z,10.53
2022-12-23T22:45:03.782Z,9.03
2022-12-23T22:47:31.959Z,13.43
2022-12-23T22:49:59.716Z,10.40
2022-12-23T22:52:27.443Z,7.43
2022-12-23T22:54:55.125Z,9.87
2022-12-23T22:57:22.809Z,10.33
2022-12-23T22:59:50.473Z,11.97
2022-12-23T23:02:18.198Z,10.17
2022-12-23T23:04:46.065Z,13.63
2022-12-23T23:07:13.750Z,10.27
2022-12-23T23:09:41.793Z,12.73
2022-12-23T23:12:09.699Z,10.33
2022-12-23T23:14:52.752Z,9.80
2022-12-23T23:17:22.293Z,9.33
2022-12-23T23:19:50.669Z,12.30
2022-12-23T23:22:20.010Z,10.40
2022-12-23T23:24:48.405Z,10.77
2022-12-23T23:27:16.467Z,10.60
2022-12-23T23:29:44.244Z,15.90
2022-12-23T23:32:11.992Z,6.80
2022-12-23T23:34:40.620Z,9.13
2022-12-23T23:37:08.215Z,11.97
2022-12-23T23:39:35.813Z,10.43
2022-12-23T23:42:03.566Z,10.07
2022-12-23T23:44:31.182Z,10.87
2022-12-23T23:46:58.822Z,9.33
2022-12-23T23:49:26.553Z,10.00
2022-12-23T23:51:54.197Z,9.33
2022-12-23T23:54:21.909Z,9.90
2022-12-23T23:56:49.558Z,9.60
2022-12-23T23:59:17.230Z,10.03
